createdAt,value
2017-03-27T00:00:43.551Z,0
2017-03-27T00:01:56.890Z,0
2017-03-27T00:03:10.631Z,0
2017-03-27T00:04:24.301Z,0
2017-03-27T00:05:38.404Z,0
2017-03-27T00:06:51.812Z,0
2017-03-27T00:08:07.472Z,0
2017-03-27T00:09:21.165Z,0
2017-03-27T00:10:34.973Z,0
2017-03-27T00:11:48.326Z,0
2017-03-27T00:13:01.867Z,0
2017-03-27T00:14:15.598Z,0
2017-03-27T00:15:35.409Z,0
2017-03-27T00:16:49.349Z,0
2017-03-27T00:18:03.145Z,0
2017-03-27T00:19:16.942Z,0
2017-03-27T00:20:30.387Z,0
2017-03-27T00:21:43.808Z,0
2017-03-27T00:22:57.552Z,0
2017-03-27T00:24:10.911Z,0
2017-03-27T00:25:24.654Z,0
2017-03-27T00:26:38.357Z,0
2017-03-27T00:28:25.485Z,0
2017-03-27T00:29:39.025Z,0
2017-03-27T00:30:52.657Z,0
2017-03-27T00:32:06.697Z,0
2017-03-27T00:33:20.704Z,0
2017-03-27T00:34:34.843Z,0
2017-03-27T00:35:48.249Z,0
2017-03-27T00:37:02.102Z,0
2017-03-27T00:38:15.508Z,0
2017-03-27T00:39:38.734Z,0
2017-03-27T00:40:52.378Z,0
2017-03-27T00:42:06.176Z,0
2017-03-27T00:43:19.822Z,0
2017-03-27T00:44:33.238Z,0
2017-03-27T00:45:47.559Z,0
2017-03-27T00:47:01.403Z,0
2017-03-27T00:48:14.817Z,0
2017-03-27T00:49:28.953Z,0
2017-03-27T00:50:42.267Z,0
2017-03-27T00:51:56.009Z,0
2017-03-27T00:53:09.395Z,0
2017-03-27T00:54:23.180Z,0
2017-03-27T00:55:36.920Z,0
2017-03-27T00:56:50.410Z,0
2017-03-27T00:58:04.388Z,0
2017-03-27T00:59:18.119Z,0
2017-03-27T01:00:31.721Z,0
2017-03-27T01:01:45.159Z,0
2017-03-27T01:02:58.797Z,0
2017-03-27T01:04:12.627Z,0
2017-03-27T01:05:25.983Z,0
2017-03-27T01:06:39.777Z,0
2017-03-27T01:07:53.437Z,0
2017-03-27T01:09:06.971Z,0
2017-03-27T01:10:20.868Z,0
2017-03-27T01:11:34.304Z,0
2017-03-27T01:12:47.646Z,0
2017-03-27T01:14:01.347Z,0
2017-03-27T01:15:14.677Z,0
2017-03-27T01:16:28.476Z,0
2017-03-27T01:17:42.115Z,0
2017-03-27T01:18:56.226Z,0
2017-03-27T01:20:09.610Z,0
2017-03-27T01:21:23.382Z,0
2017-03-27T01:22:37.633Z,0
2017-03-27T01:23:51.145Z,0
2017-03-27T01:25:06.703Z,0
2017-03-27T01:26:20.233Z,0
2017-03-27T01:27:33.910Z,0
2017-03-27T01:28:47.735Z,0
2017-03-27T01:30:01.757Z,0
2017-03-27T01:31:15.246Z,0
2017-03-27T01:32:28.610Z,0
2017-03-27T01:33:42.493Z,0
2017-03-27T01:34:56.172Z,0
2017-03-27T01:36:10.262Z,0
2017-03-27T01:37:23.656Z,0
2017-03-27T01:38:37.149Z,0
2017-03-27T01:39:50.827Z,0
2017-03-27T01:41:04.688Z,0
2017-03-27T01:42:18.016Z,0
2017-03-27T01:43:31.789Z,0
2017-03-27T01:44:45.120Z,0
2017-03-27T01:45:58.929Z,0
2017-03-27T01:47:12.573Z,0
2017-03-27T01:48:58.754Z,0
2017-03-27T01:50:12.694Z,0
2017-03-27T01:51:26.096Z,0
2017-03-27T01:52:39.575Z,0
2017-03-27T01:53:52.932Z,0
2017-03-27T01:55:06.986Z,0
2017-03-27T01:56:20.721Z,0
2017-03-27T01:57:34.779Z,0
2017-03-27T01:58:48.686Z,0
2017-03-27T02:00:02.191Z,0
2017-03-27T02:01:16.075Z,0
2017-03-27T02:02:29.515Z,0
2017-03-27T02:03:43.510Z,0
2017-03-27T02:06:47.921Z,0
2017-03-27T02:08:01.416Z,0
2017-03-27T02:09:15.068Z,0
2017-03-27T02:10:37.853Z,0
2017-03-27T02:11:51.843Z,0
2017-03-27T02:13:05.729Z,0
2017-03-27T02:14:19.455Z,0
2017-03-27T02:15:33.723Z,0
2017-03-27T02:16:47.091Z,0
2017-03-27T02:18:00.532Z,0
2017-03-27T02:19:14.049Z,0
2017-03-27T02:20:27.449Z,0
2017-03-27T02:21:40.817Z,0
2017-03-27T02:22:54.298Z,0
2017-03-27T02:24:07.575Z,0
2017-03-27T02:25:21.141Z,0
2017-03-27T02:26:34.476Z,0
2017-03-27T02:27:48.493Z,0
2017-03-27T02:29:02.003Z,0
2017-03-27T02:30:15.461Z,0
2017-03-27T02:31:29.043Z,0
2017-03-27T02:32:42.493Z,0
2017-03-27T02:33:56.179Z,0
2017-03-27T02:35:09.579Z,0
2017-03-27T02:36:23.277Z,0
2017-03-27T02:37:36.687Z,0
2017-03-27T02:38:50.035Z,0
2017-03-27T02:40:03.795Z,0
2017-03-27T02:41:17.093Z,0
2017-03-27T02:42:30.495Z,0
2017-03-27T02:43:46.013Z,0
2017-03-27T02:44:59.722Z,0
2017-03-27T02:46:13.100Z,0
2017-03-27T02:47:26.505Z,0
2017-03-27T02:48:39.849Z,0
2017-03-27T02:49:53.254Z,0
2017-03-27T02:51:06.580Z,0
2017-03-27T02:52:20.078Z,0
2017-03-27T02:53:34.000Z,0
2017-03-27T02:54:47.562Z,0
2017-03-27T02:56:00.873Z,0
2017-03-27T02:57:14.352Z,0
2017-03-27T02:58:27.660Z,0
2017-03-27T02:59:41.524Z,0
2017-03-27T03:00:55.241Z,0
2017-03-27T03:02:08.649Z,0
2017-03-27T03:03:21.946Z,0
2017-03-27T03:04:35.402Z,0
2017-03-27T03:05:49.238Z,0
2017-03-27T03:07:02.975Z,0
2017-03-27T03:08:16.857Z,0
2017-03-27T03:09:30.313Z,0
2017-03-27T03:10:43.663Z,0
2017-03-27T03:11:57.067Z,0
2017-03-27T03:13:10.597Z,0
2017-03-27T03:14:24.308Z,0
2017-03-27T03:15:37.663Z,0
2017-03-27T03:16:51.072Z,0
2017-03-27T03:18:04.703Z,0
2017-03-27T03:19:18.292Z,0
2017-03-27T03:20:31.984Z,0
2017-03-27T03:21:45.804Z,0
2017-03-27T03:22:59.149Z,0
2017-03-27T03:24:13.206Z,0
2017-03-27T03:25:26.657Z,0
2017-03-27T03:26:40.102Z,0
2017-03-27T03:27:53.435Z,0
2017-03-27T03:29:06.867Z,0
2017-03-27T03:30:20.180Z,0
2017-03-27T03:31:33.757Z,0
2017-03-27T03:32:47.074Z,0
2017-03-27T03:34:00.641Z,0
2017-03-27T03:35:14.273Z,0
2017-03-27T03:36:27.826Z,0
2017-03-27T03:37:41.184Z,0
2017-03-27T03:38:55.098Z,0
2017-03-27T03:40:08.582Z,0
2017-03-27T03:41:22.413Z,0
2017-03-27T03:42:36.413Z,0
2017-03-27T03:43:50.791Z,0
2017-03-27T03:45:04.920Z,0
2017-03-27T03:46:19.651Z,0
2017-03-27T03:47:33.471Z,0
2017-03-27T03:48:48.817Z,0
2017-03-27T03:50:03.700Z,0
2017-03-27T03:51:19.461Z,0
2017-03-27T03:52:33.870Z,0
2017-03-27T03:53:50.218Z,0
2017-03-27T03:55:05.850Z,0
2017-03-27T03:56:20.773Z,0
2017-03-27T03:57:34.118Z,0
2017-03-27T03:58:47.588Z,0
2017-03-27T04:00:03.075Z,0
2017-03-27T04:01:33.027Z,0
2017-03-27T04:02:46.653Z,0
2017-03-27T04:04:00.570Z,0
2017-03-27T04:05:14.424Z,0
2017-03-27T04:06:28.376Z,0
2017-03-27T04:07:42.201Z,0
2017-03-27T04:08:56.313Z,0
2017-03-27T04:10:10.066Z,0
2017-03-27T04:11:23.371Z,0
2017-03-27T04:12:36.818Z,0
2017-03-27T04:13:50.131Z,0
2017-03-27T04:15:03.667Z,0
2017-03-27T04:16:17.017Z,0
2017-03-27T04:17:30.843Z,0
2017-03-27T04:18:44.235Z,0
2017-03-27T04:19:57.637Z,0
2017-03-27T04:21:10.951Z,0
2017-03-27T04:22:24.398Z,0
2017-03-27T04:23:37.786Z,0
2017-03-27T04:24:51.624Z,0
2017-03-27T04:26:05.133Z,0
2017-03-27T04:27:18.527Z,0
2017-03-27T04:28:32.133Z,0
2017-03-27T04:29:45.615Z,0
2017-03-27T04:30:58.948Z,0
2017-03-27T04:32:12.375Z,0
2017-03-27T04:33:25.944Z,0
2017-03-27T04:34:39.738Z,0
2017-03-27T04:35:53.566Z,0
2017-03-27T04:37:07.035Z,0
2017-03-27T04:38:20.648Z,0
2017-03-27T04:39:34.602Z,0
2017-03-27T04:40:48.237Z,0
2017-03-27T04:42:02.329Z,0
2017-03-27T04:43:15.954Z,0
2017-03-27T04:44:29.813Z,0
2017-03-27T04:45:43.461Z,0
2017-03-27T04:47:18.031Z,0
2017-03-27T04:48:31.475Z,0
2017-03-27T04:49:44.805Z,0
2017-03-27T04:50:58.315Z,0
2017-03-27T04:52:11.649Z,0
2017-03-27T04:53:25.341Z,0
2017-03-27T04:54:38.817Z,0
2017-03-27T04:55:52.647Z,0
2017-03-27T04:57:06.277Z,0
2017-03-27T04:58:19.692Z,0
2017-03-27T04:59:33.341Z,0
2017-03-27T05:00:46.861Z,0
2017-03-27T05:02:00.179Z,0
2017-03-27T05:03:13.879Z,0
2017-03-27T05:04:27.190Z,0
2017-03-27T05:05:40.926Z,0
2017-03-27T05:06:54.348Z,5
2017-03-27T05:08:08.064Z,5
2017-03-27T05:09:21.458Z,5
2017-03-27T05:10:34.981Z,5
2017-03-27T05:11:48.568Z,5
2017-03-27T05:13:01.988Z,5
2017-03-27T05:14:15.672Z,5
2017-03-27T05:15:29.075Z,10
2017-03-27T05:16:44.881Z,10
2017-03-27T05:17:59.115Z,10
2017-03-27T05:19:12.747Z,10
2017-03-27T05:20:26.147Z,15
2017-03-27T05:21:39.507Z,15
2017-03-27T05:22:52.899Z,20
2017-03-27T05:24:06.809Z,20
2017-03-27T05:25:20.227Z,20
2017-03-27T05:26:33.892Z,25
2017-03-27T05:27:47.569Z,25
2017-03-27T05:29:01.706Z,25
2017-03-27T05:30:15.729Z,30
2017-03-27T05:31:29.051Z,30
2017-03-27T05:32:42.858Z,30
2017-03-27T05:33:56.274Z,30
2017-03-27T05:35:09.986Z,30
2017-03-27T05:36:23.918Z,30
2017-03-27T05:37:37.398Z,35
2017-03-27T05:38:50.717Z,35
2017-03-27T05:40:04.133Z,35
2017-03-27T05:41:17.422Z,40
2017-03-27T05:42:31.154Z,40
2017-03-27T05:43:44.522Z,40
2017-03-27T05:44:58.253Z,40
2017-03-27T05:46:11.548Z,45
2017-03-27T05:47:25.072Z,45
2017-03-27T05:48:38.780Z,45
2017-03-27T05:49:52.787Z,45
2017-03-27T05:51:06.095Z,50
2017-03-27T05:52:19.828Z,50
2017-03-27T05:53:33.177Z,50
2017-03-27T05:54:46.865Z,55
2017-03-27T05:56:00.714Z,55
2017-03-27T05:57:14.124Z,55
2017-03-27T05:58:27.503Z,55
2017-03-27T05:59:41.221Z,60
2017-03-27T06:00:54.970Z,60
2017-03-27T06:02:08.387Z,60
2017-03-27T06:03:21.725Z,60
2017-03-27T06:04:35.175Z,65
2017-03-27T06:05:48.463Z,65
2017-03-27T06:07:02.473Z,65
2017-03-27T06:08:15.773Z,65
2017-03-27T06:09:29.285Z,70
2017-03-27T06:10:42.606Z,70
2017-03-27T06:11:56.028Z,70
2017-03-27T06:13:09.804Z,70
2017-03-27T06:14:23.597Z,75
2017-03-27T06:15:36.881Z,75
2017-03-27T06:16:50.324Z,75
2017-03-27T06:18:03.622Z,75
2017-03-27T06:19:17.335Z,75
2017-03-27T06:20:30.720Z,80
2017-03-27T06:21:44.127Z,80
2017-03-27T06:22:57.439Z,80
2017-03-27T06:24:10.911Z,80
2017-03-27T06:25:24.584Z,80
2017-03-27T06:26:38.343Z,80
2017-03-27T06:27:51.724Z,85
2017-03-27T06:29:05.769Z,85
2017-03-27T06:30:19.138Z,85
2017-03-27T06:31:32.889Z,85
2017-03-27T06:32:48.701Z,85
2017-03-27T06:34:02.262Z,85
2017-03-27T06:35:15.610Z,90
2017-03-27T06:36:29.089Z,90
2017-03-27T06:37:42.711Z,90
2017-03-27T06:38:56.192Z,90
2017-03-27T06:40:09.492Z,90
2017-03-27T06:41:36.231Z,95
2017-03-27T06:42:49.539Z,95
2017-03-27T06:44:02.994Z,95
2017-03-27T06:45:16.316Z,95
2017-03-27T06:46:30.290Z,95
2017-03-27T06:47:43.916Z,95
2017-03-27T06:48:57.682Z,95
2017-03-27T06:50:11.306Z,95
2017-03-27T06:51:24.760Z,95
2017-03-27T06:52:38.208Z,95
2017-03-27T06:53:51.667Z,100
2017-03-27T06:55:05.692Z,100
2017-03-27T06:56:19.111Z,100
2017-03-27T06:57:32.519Z,100
2017-03-27T06:58:46.018Z,100
2017-03-27T06:59:59.594Z,100
2017-03-27T07:01:13.021Z,100
2017-03-27T07:02:27.001Z,105
2017-03-27T07:03:50.684Z,105
2017-03-27T07:05:04.503Z,105
2017-03-27T07:06:31.746Z,105
2017-03-27T07:07:45.481Z,105
2017-03-27T07:08:58.964Z,105
2017-03-27T07:10:12.303Z,105
2017-03-27T07:11:26.050Z,110
2017-03-27T07:12:40.007Z,110
2017-03-27T07:13:53.520Z,110
2017-03-27T07:15:06.826Z,110
2017-03-27T07:16:20.242Z,110
2017-03-27T07:17:33.739Z,110
2017-03-27T07:18:47.238Z,110
2017-03-27T07:20:01.214Z,110
2017-03-27T07:21:14.650Z,110
2017-03-27T07:22:28.317Z,110
2017-03-27T07:23:57.597Z,115
2017-03-27T07:25:11.312Z,115
2017-03-27T07:26:25.394Z,115
2017-03-27T07:27:39.522Z,115
2017-03-27T07:28:53.507Z,115
2017-03-27T07:30:07.665Z,115
2017-03-27T07:31:21.763Z,115
2017-03-27T07:32:35.509Z,115
2017-03-27T07:33:49.363Z,115
2017-03-27T07:35:03.379Z,115
2017-03-27T07:36:18.042Z,115
2017-03-27T07:37:31.385Z,115
2017-03-27T07:38:44.925Z,115
2017-03-27T07:39:59.642Z,115
2017-03-27T07:41:13.193Z,115
2017-03-27T07:42:26.949Z,120
2017-03-27T07:43:41.565Z,120
2017-03-27T07:44:55.336Z,120
2017-03-27T07:46:09.162Z,120
2017-03-27T07:47:22.570Z,120
2017-03-27T07:48:36.759Z,120
2017-03-27T07:49:52.939Z,120
2017-03-27T07:51:06.513Z,120
2017-03-27T07:52:21.247Z,120
2017-03-27T07:53:35.054Z,120
2017-03-27T07:54:49.432Z,120
2017-03-27T07:56:03.631Z,120
2017-03-27T07:57:17.017Z,120
2017-03-27T07:58:31.093Z,120
2017-03-27T07:59:45.061Z,120
2017-03-27T08:00:59.610Z,120
2017-03-27T08:02:13.103Z,120
2017-03-27T08:03:26.882Z,120
2017-03-27T08:04:40.727Z,120
2017-03-27T08:05:54.363Z,120
2017-03-27T08:07:09.254Z,120
2017-03-27T08:08:32.738Z,120
2017-03-27T08:09:46.353Z,120
2017-03-27T08:11:00.179Z,120
2017-03-27T08:12:13.920Z,120
2017-03-27T08:13:28.023Z,120
2017-03-27T08:14:42.197Z,125
2017-03-27T08:15:55.993Z,125
2017-03-27T08:17:09.418Z,125
2017-03-27T08:18:23.383Z,125
2017-03-27T08:19:37.162Z,125
2017-03-27T08:20:51.366Z,125
2017-03-27T08:22:05.050Z,125
2017-03-27T08:23:19.784Z,125
2017-03-27T08:24:33.809Z,125
2017-03-27T08:25:47.793Z,125
2017-03-27T08:27:01.471Z,125
2017-03-27T08:28:15.940Z,125
2017-03-27T08:29:30.417Z,125
2017-03-27T08:30:44.325Z,125
2017-03-27T08:31:57.829Z,125
2017-03-27T08:33:11.895Z,125
2017-03-27T08:34:25.285Z,125
2017-03-27T08:35:39.026Z,125
2017-03-27T08:36:52.810Z,125
2017-03-27T08:38:06.448Z,125
2017-03-27T08:39:20.797Z,125
2017-03-27T08:40:34.650Z,125
2017-03-27T08:41:48.079Z,125
2017-03-27T08:43:02.085Z,125
2017-03-27T08:44:15.947Z,125
2017-03-27T08:45:30.198Z,125
2017-03-27T08:46:43.636Z,125
2017-03-27T08:47:57.745Z,125
2017-03-27T08:49:11.601Z,125
2017-03-27T08:50:25.125Z,120
2017-03-27T08:51:39.580Z,120
2017-03-27T08:52:53.342Z,120
2017-03-27T08:54:06.866Z,120
2017-03-27T08:55:20.269Z,120
2017-03-27T08:56:33.583Z,120
2017-03-27T08:57:47.308Z,120
2017-03-27T08:59:01.255Z,120
2017-03-27T09:00:15.057Z,120
2017-03-27T09:01:28.645Z,120
2017-03-27T09:02:42.259Z,120
2017-03-27T09:03:56.158Z,120
2017-03-27T09:05:09.881Z,120
2017-03-27T09:06:25.722Z,120
2017-03-27T09:07:39.172Z,120
2017-03-27T09:08:52.974Z,120
2017-03-27T09:10:06.788Z,120
2017-03-27T09:11:20.871Z,120
2017-03-27T09:12:34.472Z,120
2017-03-27T09:13:47.864Z,120
2017-03-27T09:15:02.340Z,120
2017-03-27T09:16:16.292Z,120
2017-03-27T09:17:30.196Z,120
2017-03-27T09:18:44.575Z,120
2017-03-27T09:19:58.267Z,120
2017-03-27T09:21:12.119Z,120
2017-03-27T09:22:26.189Z,120
2017-03-27T09:23:40.233Z,120
2017-03-27T09:24:54.586Z,120
2017-03-27T09:26:08.724Z,120
2017-03-27T09:27:22.551Z,120
2017-03-27T09:28:36.336Z,125
2017-03-27T09:29:50.324Z,120
2017-03-27T09:31:04.161Z,125
2017-03-27T09:32:18.238Z,120
2017-03-27T09:33:31.948Z,120
2017-03-27T09:34:46.068Z,120
2017-03-27T09:35:59.802Z,120
2017-03-27T09:37:13.716Z,120
2017-03-27T09:38:27.440Z,120
2017-03-27T09:39:59.518Z,120
2017-03-27T09:41:13.649Z,120
2017-03-27T09:42:27.014Z,120
2017-03-27T09:43:41.197Z,120
2017-03-27T09:44:54.656Z,120
2017-03-27T09:46:08.660Z,120
2017-03-27T09:47:23.373Z,120
2017-03-27T09:48:37.936Z,120
2017-03-27T09:49:51.693Z,120
2017-03-27T09:51:05.599Z,120
2017-03-27T09:52:18.977Z,120
2017-03-27T09:53:32.473Z,120
2017-03-27T09:54:46.405Z,120
2017-03-27T09:56:00.247Z,120
2017-03-27T09:57:13.696Z,120
2017-03-27T09:58:27.616Z,120
2017-03-27T09:59:40.983Z,120
2017-03-27T10:00:55.164Z,120
2017-03-27T10:02:09.485Z,120
2017-03-27T10:03:23.270Z,120
2017-03-27T10:04:36.988Z,120
2017-03-27T10:06:12.410Z,120
2017-03-27T10:07:26.254Z,125
2017-03-27T10:08:40.256Z,120
2017-03-27T10:10:10.265Z,120
2017-03-27T10:11:24.350Z,120
2017-03-27T10:12:38.632Z,125
2017-03-27T10:13:52.405Z,120
2017-03-27T10:15:05.992Z,120
2017-03-27T10:16:20.096Z,120
2017-03-27T10:17:34.001Z,120
2017-03-27T10:18:47.718Z,120
2017-03-27T10:20:02.033Z,120
2017-03-27T10:21:16.337Z,120
2017-03-27T10:22:30.376Z,120
2017-03-27T10:23:46.708Z,120
2017-03-27T10:25:01.832Z,120
2017-03-27T10:26:16.458Z,120
2017-03-27T10:27:31.893Z,115
2017-03-27T10:28:47.219Z,120
2017-03-27T10:30:02.173Z,120
2017-03-27T10:31:15.596Z,120
2017-03-27T10:32:47.772Z,120
2017-03-27T10:34:02.983Z,120
2017-03-27T10:35:17.328Z,120
2017-03-27T10:36:46.647Z,120
2017-03-27T10:38:01.340Z,120
2017-03-27T10:39:15.788Z,115
2017-03-27T10:40:29.528Z,115
2017-03-27T10:41:44.019Z,115
2017-03-27T10:42:58.231Z,115
2017-03-27T10:44:12.297Z,115
2017-03-27T10:45:26.150Z,115
2017-03-27T10:46:39.759Z,115
2017-03-27T10:47:53.177Z,115
2017-03-27T10:49:08.259Z,120
2017-03-27T10:50:21.887Z,120
2017-03-27T10:51:35.660Z,120
2017-03-27T10:52:49.298Z,115
2017-03-27T10:54:03.167Z,115
2017-03-27T10:55:16.877Z,115
2017-03-27T10:56:30.658Z,115
2017-03-27T10:57:44.046Z,115
2017-03-27T10:58:57.917Z,115
2017-03-27T11:00:11.890Z,115
2017-03-27T11:01:26.028Z,115
2017-03-27T11:02:39.745Z,115
2017-03-27T11:04:06.799Z,115
2017-03-27T11:05:20.308Z,115
2017-03-27T11:06:33.753Z,115
2017-03-27T11:07:47.897Z,115
2017-03-27T11:09:01.854Z,115
2017-03-27T11:10:15.510Z,115
2017-03-27T11:11:29.014Z,115
2017-03-27T11:12:42.340Z,115
2017-03-27T11:13:56.127Z,115
2017-03-27T11:15:09.454Z,115
2017-03-27T11:16:23.156Z,115
2017-03-27T11:17:36.828Z,115
2017-03-27T11:18:50.336Z,115
2017-03-27T11:20:03.729Z,115
2017-03-27T11:21:30.367Z,115
2017-03-27T11:22:43.710Z,115
2017-03-27T11:23:57.777Z,115
2017-03-27T11:25:11.203Z,115
2017-03-27T11:26:24.922Z,115
2017-03-27T11:27:39.416Z,115
2017-03-27T11:28:53.470Z,115
2017-03-27T11:30:07.408Z,115
2017-03-27T11:31:20.832Z,115
2017-03-27T11:32:34.484Z,115
2017-03-27T11:33:48.292Z,115
2017-03-27T11:35:01.767Z,115
2017-03-27T11:36:15.533Z,115
2017-03-27T11:37:29.175Z,115
2017-03-27T11:38:42.633Z,115
2017-03-27T11:39:56.473Z,115
2017-03-27T11:41:12.827Z,115
2017-03-27T11:42:26.150Z,115
2017-03-27T11:43:39.615Z,115
2017-03-27T11:44:53.331Z,115
2017-03-27T11:46:07.184Z,115
2017-03-27T11:47:20.529Z,115
2017-03-27T11:48:34.282Z,115
2017-03-27T11:49:47.664Z,115
2017-03-27T11:51:01.432Z,115
2017-03-27T11:52:15.123Z,115
2017-03-27T11:53:28.814Z,115
2017-03-27T11:54:42.254Z,115
2017-03-27T11:55:56.042Z,115
2017-03-27T11:57:09.854Z,115
2017-03-27T11:58:23.679Z,115
2017-03-27T11:59:37.773Z,115
2017-03-27T12:00:51.264Z,115
2017-03-27T12:02:04.732Z,115
2017-03-27T12:03:18.691Z,115
2017-03-27T12:04:32.411Z,115
2017-03-27T12:05:45.915Z,115
2017-03-27T12:06:59.691Z,115
2017-03-27T12:08:13.158Z,115
2017-03-27T12:09:26.485Z,120
2017-03-27T12:10:40.221Z,115
2017-03-27T12:11:53.582Z,115
2017-03-27T12:13:21.495Z,115
2017-03-27T12:14:34.843Z,115
2017-03-27T12:15:48.276Z,115
2017-03-27T12:17:01.801Z,115
2017-03-27T12:18:15.285Z,115
2017-03-27T12:19:29.027Z,115
2017-03-27T12:20:42.482Z,115
2017-03-27T12:21:55.819Z,115
2017-03-27T12:23:09.293Z,115
2017-03-27T12:24:22.665Z,115
2017-03-27T12:25:36.575Z,115
2017-03-27T12:26:49.885Z,115
2017-03-27T12:28:03.734Z,115
2017-03-27T12:29:17.165Z,115
2017-03-27T12:30:30.699Z,115
2017-03-27T12:31:44.967Z,115
2017-03-27T12:33:00.987Z,115
2017-03-27T12:34:15.792Z,115
2017-03-27T12:35:29.282Z,115
2017-03-27T12:36:43.326Z,115
2017-03-27T12:37:57.323Z,115
2017-03-27T12:39:10.730Z,115
2017-03-27T12:40:24.512Z,115
2017-03-27T12:41:37.955Z,115
2017-03-27T12:42:51.445Z,115
2017-03-27T12:44:05.134Z,115
2017-03-27T12:45:19.111Z,115
2017-03-27T12:46:32.584Z,115
2017-03-27T12:47:46.120Z,115
2017-03-27T12:48:59.506Z,120
2017-03-27T12:50:13.515Z,120
2017-03-27T12:51:26.848Z,115
2017-03-27T12:52:54.165Z,115
2017-03-27T12:54:07.525Z,115
2017-03-27T12:55:21.072Z,115
2017-03-27T12:56:34.544Z,115
2017-03-27T12:57:50.505Z,115
2017-03-27T12:59:05.397Z,115
2017-03-27T13:00:19.469Z,115
2017-03-27T13:01:32.878Z,115
2017-03-27T13:02:46.667Z,115
2017-03-27T13:04:00.699Z,115
2017-03-27T13:05:14.556Z,115
2017-03-27T13:06:27.939Z,115
2017-03-27T13:07:41.400Z,115
2017-03-27T13:08:55.086Z,115
2017-03-27T13:10:08.547Z,115
2017-03-27T13:11:21.956Z,115
2017-03-27T13:12:35.376Z,115
2017-03-27T13:13:49.021Z,115
2017-03-27T13:15:02.866Z,115
2017-03-27T13:16:16.400Z,115
2017-03-27T13:17:29.981Z,115
2017-03-27T13:18:44.046Z,115
2017-03-27T13:19:57.718Z,115
2017-03-27T13:21:11.159Z,115
2017-03-27T13:22:24.642Z,115
2017-03-27T13:23:41.360Z,115
2017-03-27T13:24:54.836Z,115
2017-03-27T13:26:08.262Z,115
2017-03-27T13:27:22.012Z,115
2017-03-27T13:28:35.366Z,115
2017-03-27T13:29:48.853Z,115
2017-03-27T13:31:02.191Z,120
2017-03-27T13:32:15.672Z,120
2017-03-27T13:33:28.986Z,120
2017-03-27T13:34:42.777Z,120
2017-03-27T13:35:56.511Z,120
2017-03-27T13:37:10.131Z,120
2017-03-27T13:38:23.838Z,120
2017-03-27T13:39:37.676Z,120
2017-03-27T13:40:51.882Z,120
2017-03-27T13:42:20.857Z,120
2017-03-27T13:43:34.217Z,120
2017-03-27T13:45:25.701Z,120
2017-03-27T13:46:52.648Z,120
2017-03-27T13:48:06.280Z,120
2017-03-27T13:49:19.820Z,120
2017-03-27T13:50:33.480Z,120
2017-03-27T13:51:47.000Z,120
2017-03-27T13:53:01.431Z,120
2017-03-27T13:54:14.916Z,120
2017-03-27T13:55:28.260Z,120
2017-03-27T13:56:42.086Z,120
2017-03-27T13:57:55.523Z,120
2017-03-27T13:59:26.372Z,120
2017-03-27T14:00:40.213Z,120
2017-03-27T14:01:53.764Z,120
2017-03-27T14:03:07.896Z,120
2017-03-27T14:04:21.509Z,120
2017-03-27T14:05:34.994Z,120
2017-03-27T14:06:48.718Z,120
2017-03-27T14:08:02.326Z,120
2017-03-27T14:09:15.695Z,120
2017-03-27T14:10:54.070Z,120
2017-03-27T14:12:07.901Z,120
2017-03-27T14:13:21.374Z,120
2017-03-27T14:15:08.184Z,120
2017-03-27T14:16:24.168Z,120
2017-03-27T14:17:37.503Z,120
2017-03-27T14:18:51.129Z,120
2017-03-27T14:20:04.593Z,120
2017-03-27T14:21:18.756Z,120
2017-03-27T14:22:32.342Z,120
2017-03-27T14:23:46.870Z,120
2017-03-27T14:25:01.158Z,120
2017-03-27T14:26:15.412Z,120
2017-03-27T14:27:29.117Z,120
2017-03-27T14:29:03.277Z,120
2017-03-27T14:30:16.810Z,120
2017-03-27T14:31:30.188Z,120
2017-03-27T14:32:43.686Z,120
2017-03-27T14:33:57.165Z,120
2017-03-27T14:35:10.637Z,120
2017-03-27T14:36:24.348Z,120
2017-03-27T14:37:38.013Z,120
2017-03-27T14:38:52.836Z,120
2017-03-27T14:40:06.692Z,120
2017-03-27T14:41:20.017Z,120
2017-03-27T14:42:33.774Z,120
2017-03-27T14:43:47.209Z,120
2017-03-27T14:45:01.072Z,120
2017-03-27T14:46:40.373Z,120
2017-03-27T14:47:53.825Z,120
2017-03-27T14:49:07.168Z,120
2017-03-27T14:50:20.927Z,115
2017-03-27T14:51:34.275Z,115
2017-03-27T14:52:48.041Z,115
2017-03-27T14:54:01.694Z,115
2017-03-27T14:55:28.368Z,115
2017-03-27T14:56:42.056Z,115
2017-03-27T14:57:55.828Z,115
2017-03-27T14:59:09.332Z,115
2017-03-27T15:00:23.507Z,115
2017-03-27T15:01:37.966Z,115
2017-03-27T15:02:51.659Z,115
2017-03-27T15:04:05.299Z,115
2017-03-27T15:05:21.078Z,115
2017-03-27T15:06:34.716Z,115
2017-03-27T15:08:03.881Z,115
2017-03-27T15:09:17.397Z,115
2017-03-27T15:10:30.800Z,115
2017-03-27T15:11:44.284Z,115
2017-03-27T15:12:57.849Z,115
2017-03-27T15:14:12.832Z,115
2017-03-27T15:15:26.474Z,110
2017-03-27T15:16:40.510Z,110
2017-03-27T15:22:47.307Z,110
2017-03-27T15:24:00.786Z,110
2017-03-27T15:25:14.488Z,110
2017-03-27T15:26:28.863Z,110
2017-03-27T15:27:42.774Z,110
2017-03-27T15:28:57.611Z,110
2017-03-27T15:30:11.764Z,110
2017-03-27T15:31:34.451Z,110
2017-03-27T15:32:48.157Z,105
2017-03-27T15:34:02.292Z,105
2017-03-27T15:35:15.805Z,105
2017-03-27T15:36:30.045Z,105
2017-03-27T15:37:45.896Z,105
2017-03-27T15:39:31.696Z,105
2017-03-27T15:40:45.147Z,105
2017-03-27T15:41:58.653Z,105
2017-03-27T15:43:12.636Z,105
2017-03-27T15:44:26.286Z,105
2017-03-27T15:45:40.135Z,105
2017-03-27T15:46:53.909Z,100
2017-03-27T15:48:08.046Z,100
2017-03-27T15:49:21.429Z,100
2017-03-27T15:50:35.540Z,100
2017-03-27T15:51:49.583Z,100
2017-03-27T15:53:03.177Z,100
2017-03-27T15:54:16.787Z,100
2017-03-27T15:55:30.571Z,100
2017-03-27T15:56:44.209Z,100
2017-03-27T15:57:58.080Z,100
2017-03-27T15:59:11.745Z,95
2017-03-27T16:00:26.113Z,95
2017-03-27T16:01:39.741Z,95
2017-03-27T16:02:53.952Z,95
2017-03-27T16:04:12.324Z,95
2017-03-27T16:05:26.212Z,95
2017-03-27T16:06:40.304Z,95
2017-03-27T16:07:54.110Z,95
2017-03-27T16:09:07.501Z,90
2017-03-27T16:10:21.168Z,90
2017-03-27T16:11:34.527Z,90
2017-03-27T16:12:48.022Z,90
2017-03-27T16:14:02.830Z,90
2017-03-27T16:15:17.380Z,90
2017-03-27T16:16:31.139Z,90
2017-03-27T16:17:54.273Z,85
2017-03-27T16:19:07.849Z,85
2017-03-27T16:20:21.806Z,85
2017-03-27T16:21:35.546Z,85
2017-03-27T16:22:49.390Z,85
2017-03-27T16:24:03.414Z,85
2017-03-27T16:25:17.097Z,80
2017-03-27T16:26:30.834Z,80
2017-03-27T16:27:44.526Z,80
2017-03-27T16:28:58.270Z,80
2017-03-27T16:30:11.711Z,80
2017-03-27T16:31:25.161Z,80
2017-03-27T16:32:39.081Z,75
2017-03-27T16:33:53.073Z,75
2017-03-27T16:35:06.530Z,75
2017-03-27T16:36:21.012Z,75
2017-03-27T16:37:35.126Z,75
2017-03-27T16:38:48.558Z,70
2017-03-27T16:40:03.527Z,70
2017-03-27T16:41:18.068Z,70
2017-03-27T16:42:32.904Z,70
2017-03-27T16:43:46.480Z,70
2017-03-27T16:45:00.325Z,65
2017-03-27T16:46:14.157Z,65
2017-03-27T16:47:28.273Z,65
2017-03-27T16:48:43.451Z,65
2017-03-27T16:49:57.335Z,65
2017-03-27T16:51:20.516Z,60
2017-03-27T16:52:33.986Z,60
2017-03-27T16:53:47.926Z,60
2017-03-27T16:55:05.251Z,60
2017-03-27T16:56:18.924Z,55
2017-03-27T16:57:32.695Z,55
2017-03-27T16:58:46.148Z,55
2017-03-27T17:00:00.001Z,55
2017-03-27T17:01:13.736Z,50
2017-03-27T17:02:28.012Z,50
2017-03-27T17:03:42.170Z,50
2017-03-27T17:04:56.702Z,50
2017-03-27T17:06:10.541Z,45
2017-03-27T17:07:24.643Z,45
2017-03-27T17:08:38.763Z,45
2017-03-27T17:09:52.287Z,45
2017-03-27T17:11:06.322Z,40
2017-03-27T17:12:21.392Z,40
2017-03-27T17:13:35.485Z,40
2017-03-27T17:15:07.361Z,35
2017-03-27T17:16:20.866Z,35
2017-03-27T17:17:35.225Z,35
2017-03-27T17:18:48.979Z,35
2017-03-27T17:20:02.725Z,30
2017-03-27T17:21:16.234Z,30
2017-03-27T17:22:29.953Z,30
2017-03-27T17:23:43.427Z,30
2017-03-27T17:24:57.636Z,25
2017-03-27T17:26:11.604Z,25
2017-03-27T17:27:25.368Z,25
2017-03-27T17:28:38.898Z,20
2017-03-27T17:29:52.289Z,20
2017-03-27T17:31:06.703Z,20
2017-03-27T17:32:20.264Z,20
2017-03-27T17:33:33.750Z,15
2017-03-27T17:34:47.078Z,15
2017-03-27T17:36:01.555Z,15
2017-03-27T17:37:14.963Z,15
2017-03-27T17:38:28.941Z,10
2017-03-27T17:39:42.702Z,10
2017-03-27T17:40:56.519Z,10
2017-03-27T17:42:10.542Z,10